Nearby METAR Reports

 

KRYN - Tucson/Ryan Fld, Arizona, USA
Distance from station: SSW 16mi, 26km
Updated: Sat, 02-Mar-2024 9:48am MST
Clear
Clear
 Wind from E
Wind: E 6 mph , 9 km/h
Temperature: 63°F , 17°C
Dew Point: 36°F , 2°C
Humidity: 37%
Barometer: 30.05 inHg , 1017.6 hPa
Clouds: Clear
Visibility: 10 miles , 16 km
2024/03/02 16:48 KRYN 021648Z 08005KT 10SM CLR 17/02 A3005
KTUS - Tucson, Arizona, USA
Distance from station: SSE 18mi, 28km
Updated: Sat, 02-Mar-2024 9:53am MST
Clear
Clear
 Wind from SE
Wind: SE 5 mph , 7 km/h
Temperature: 64°F , 18°C
Dew Point: 36°F , 2°C
Humidity: 34%
Barometer: 30.08 inHg , 1018.6 hPa
Clouds: Clear
Visibility: 10 miles , 16 km
2024/03/02 16:53 KTUS 021653Z 14004KT 10SM CLR 18/02 A3008 RMK AO2 SLP160 T01780017
 
KDMA - Davis/Tucson, Arizona, USA
Distance from station: SE 18mi, 29km
Updated: Sat, 02-Mar-2024 9:55am MST
Clear
Clear
 Wind from S
Wind: S 3 mph , 6 km/h
Temperature: 64°F , 18°C
Dew Point: 32°F , 0°C
Humidity: 30%
Barometer: 30.06 inHg , 1017.9 hPa
Clouds: Clear
Visibility: 10 miles , 16 km
2024/03/02 16:55 KDMA 021655Z AUTO 18003KT 10SM CLR 18/00 A3006 RMK AO2 SLP198 T01790001
KCGZ - Casa Granda, Arizona, USA
Distance from station: NW 57mi, 92km
Updated: Sat, 02-Mar-2024 9:56am MST
Clear
Clear
 Wind from S
Wind: S 8 mph , 13 km/h
Temperature: 63°F , 17°C
Dew Point: 43°F , 6°C
Humidity: 49%
Barometer: 30.03 inHg , 1016.9 hPa
Clouds: Clear
Visibility: 10 miles , 16 km
2024/03/02 16:56 KCGZ 021656Z AUTO 18007KT 10SM CLR 17/06 A3003 RMK AO2 SLP166 T01720056 PNO $
 
KALK - Pioneer Airfield, Arizona, USA
Distance from station: SE 65mi, 104km
Updated: Sat, 02-Mar-2024 9:56am MST
Clear
Clear
 Wind from WSW
Wind: WSW 21 mph , 33 km/h, Gust: 29 mph , 46 km/h
Temperature: 61°F , 16°C
Dew Point: 16°F , -9°C
Humidity: 17%
Barometer: 30.14 inHg , 1020.7 hPa
Clouds: Clear
Visibility: 10 miles , 16 km
2024/03/02 16:56 KALK 021656Z AUTO 24018G25KT 10SM CLR 16/M09 A3014 RMK AO2 PK WND 24026/1654 SLP143 T01611089
KOLS - Nogales, Arizona, USA
Distance from station: S 67mi, 108km
Updated: Sat, 02-Mar-2024 9:54am MST
Clear
Clear
 Wind from SSW
Wind: SSW 8 mph , 13 km/h
Temperature: 63°F , 17°C
Dew Point: 28°F , -2°C
Humidity: 27%
Barometer: 30.12 inHg , 1020 hPa
Clouds: Clear
Visibility: 10 miles , 16 km
2024/03/02 16:54 KOLS 021654Z AUTO 20007KT 10SM CLR 17/M02 A3012 RMK AO2 SLP162 T01671017
 
KFHU - Fort Huachuca, Arizona, USA
Distance from station: SE 69mi, 110km
Updated: Sat, 02-Mar-2024 10:39am MST
Clear
Clear
 Wind from SSW
Wind: SSW 10 mph , 17 km/h
Temperature: 64°F , 18°C
Dew Point: 12°F , -11°C
Humidity: 13%
Barometer: 30.12 inHg , 1020 hPa
Clouds: Clear
Visibility: 10 miles , 16 km
2024/03/02 17:39 KFHU 021739Z AUTO 20009KT 10SM CLR 18/M11 A3012 RMK AO2 SLP159
KIWA - Chandler/Mesa, Arizona, USA
Distance from station: NNW 73mi, 117km
Updated: Sat, 02-Mar-2024 10:51am MST
Clear
Clear
 Wind from SSE
Wind: SSE 3 mph , 6 km/h
Temperature: 66°F , 19°C
Dew Point: 41°F , 5°C
Humidity: 40%
Barometer: 30.04 inHg , 1017.3 hPa
Clouds: Clear
Visibility: 10 miles , 16 km
2024/03/02 17:51 KIWA 021751Z 16003KT 10SM CLR 19/05 A3004